Mountain Fork River (Oklahoma), Eagleville (07339000)

StateOklahomaLatestHigh (2610 cfs)
RiverMountain Fork RiverRatingObservedEstimated
Updated2020-07-13 18:30 (1 hour ago)Flood - The river is flooding. Obstacles can be treacherous or deadly. The river should be avoided at this stage for casual trips and definitely for the inexperienced. Trips should be attempted only with protective gear and equipment.Flood(none)6210
Discharge2610 cfs (median: 715 cfs)High - The river is high and potentially dangerous, especially for the young and / or inexperienced. Normal stream obstacles are sometimes difficult to navigate. Extended distances can be attempted, but canoe travel may not be advisable.High(none)960
Height4.45 feetGood - Conditions are ideal for a canoe or kayak. Boats typically will drag on fewer than one-quarter of riffles, if at all, and portages are unnecessary or rare. Normal float lengths can be attempted without a problem.Good(none)712
TrendRising (rising over 24 hours)Low - River is low but can still be floated. Some riffles are okay but most come with significant dragging and might need a portage. Float lengths should be reduced to accommodate low flow, dragging, and portages.Low(none)655
USGSExternal icon USGS Site (External icon Google Maps)Poor - River is too low to float comfortably. Most or all riffles will drag or must be portaged and some obstacles (such as slick shelf rock) cause undue problems. Avoid the river at this stage for casual paddling trips.Poor(none)197

Trending Data

Plot Image

Trips for Mountain Fork River (Oklahoma), Eagleville (07339000)

DateStartEndDistanceConditionDischargeHeightFishingDetails
Click for details2003-07-06 Rereg Dam US 70 Total trip distance: 3.2 miles3.2 Good 363 None NoneNone Fillmore, Brian
Wann, Denny
Fillmore, Brian; Wann, Denny
No notes for this trip<i>No notes for this trip</i> USGS Gauge Data:
Eagleville (07339000)
Discharge: 363
Height:
<b>USGS Gauge Data:</b></br />Eagleville (07339000)<br />Discharge: 363<br />Height:
Source: FillmoreSource: Fillmore

A total of 1 rows are displayed.

Trip Summary for Mountain Fork River (Oklahoma), Eagleville (07339000)

Miles3.2
Trips1
People2
Dates1
Years1
Months1
Rows1
Sources1

Condition Descriptions

Fishing Conditions

Fish Species

Notes

Classic Trip List

The classic River Trips application is still available for use. It is updated with the new system using a data retrofit. It is no longer maintained. The original River Trips application is no longer updated (as of 1 Dec 2016) but can be checked for errors or for the condition of the data before it was converted to the new system.

Gauge Data Table

ObservationHeightDischargeMaximum
Discharge
Minimum
Discharge
Mean
Discharge
P05P10P20P25P50
(Median)
P75P80P90P95
2020-07-13 18:30 4.45 2610 7070 (1983) 163 (1975) 1130 172 198 300 358 715 1510 1680 2420 4080
2020-07-13 17:30 3.61 1880 7070 (1983) 163 (1975) 1130 172 198 300 358 715 1510 1680 2420 4080
2020-07-13 16:30 2.42 981 7070 (1983) 163 (1975) 1130 172 198 300 358 715 1510 1680 2420 4080
2020-07-13 15:30 1.73 572 7070 (1983) 163 (1975) 1130 172 198 300 358 715 1510 1680 2420 4080
2020-07-13 14:30 1.72 566 7070 (1983) 163 (1975) 1130 172 198 300 358 715 1510 1680 2420 4080
2020-07-13 13:30 1.78 598 7070 (1983) 163 (1975) 1130 172 198 300 358 715 1510 1680 2420 4080
2020-07-13 12:30 1.84 631 7070 (1983) 163 (1975) 1130 172 198 300 358 715 1510 1680 2420 4080
2020-07-13 11:30 1.91 670 7070 (1983) 163 (1975) 1130 172 198 300 358 715 1510 1680 2420 4080
2020-07-13 10:30 1.97 704 7070 (1983) 163 (1975) 1130 172 198 300 358 715 1510 1680 2420 4080
2020-07-13 09:30 2.05 750 7070 (1983) 163 (1975) 1130 172 198 300 358 715 1510 1680 2420 4080
2020-07-13 08:30 2.14 804 7070 (1983) 163 (1975) 1130 172 198 300 358 715 1510 1680 2420 4080
2020-07-13 07:30 2.23 859 7070 (1983) 163 (1975) 1130 172 198 300 358 715 1510 1680 2420 4080
2020-07-13 06:30 2.33 923 7070 (1983) 163 (1975) 1130 172 198 300 358 715 1510 1680 2420 4080
2020-07-13 05:30 2.44 994 7070 (1983) 163 (1975) 1130 172 198 300 358 715 1510 1680 2420 4080
2020-07-13 04:30 2.56 1070 7070 (1983) 163 (1975) 1130 172 198 300 358 715 1510 1680 2420 4080
2020-07-13 03:30 2.69 1160 7070 (1983) 163 (1975) 1130 172 198 300 358 715 1510 1680 2420 4080
2020-07-13 02:30 2.83 1270 7070 (1983) 163 (1975) 1130 172 198 300 358 715 1510 1680 2420 4080
2020-07-13 01:30 2.98 1380 7070 (1983) 163 (1975) 1130 172 198 300 358 715 1510 1680 2420 4080
2020-07-13 00:30 3.15 1510 7070 (1983) 163 (1975) 1130 172 198 300 358 715 1510 1680 2420 4080
2020-07-12 23:30 3.33 1650 7130 (1983) 173 (2009) 1170 183 213 301 351 696 1380 1650 2520 5240
2020-07-12 22:30 3.51 1800 7130 (1983) 173 (2009) 1170 183 213 301 351 696 1380 1650 2520 5240
2020-07-12 21:30 3.66 1930 7130 (1983) 173 (2009) 1170 183 213 301 351 696 1380 1650 2520 5240
2020-07-12 20:30 3.62 1890 7130 (1983) 173 (2009) 1170 183 213 301 351 696 1380 1650 2520 5240
2020-07-12 19:30 3.00 1390 7130 (1983) 173 (2009) 1170 183 213 301 351 696 1380 1650 2520 5240
2020-07-12 18:30 1.83 625 7130 (1983) 173 (2009) 1170 183 213 301 351 696 1380 1650 2520 5240
2020-07-12 17:30 1.24 338 7130 (1983) 173 (2009) 1170 183 213 301 351 696 1380 1650 2520 5240
2020-07-12 16:30 1.25 342 7130 (1983) 173 (2009) 1170 183 213 301 351 696 1380 1650 2520 5240
2020-07-12 15:30 1.27 351 7130 (1983) 173 (2009) 1170 183 213 301 351 696 1380 1650 2520 5240
2020-07-12 14:30 1.29 359 7130 (1983) 173 (2009) 1170 183 213 301 351 696 1380 1650 2520 5240
2020-07-12 13:30 1.29 359 7130 (1983) 173 (2009) 1170 183 213 301 351 696 1380 1650 2520 5240
2020-07-12 12:30 1.32 373 7130 (1983) 173 (2009) 1170 183 213 301 351 696 1380 1650 2520 5240
2020-07-12 11:30 1.34 382 7130 (1983) 173 (2009) 1170 183 213 301 351 696 1380 1650 2520 5240
2020-07-12 10:30 1.35 386 7130 (1983) 173 (2009) 1170 183 213 301 351 696 1380 1650 2520 5240
2020-07-12 09:30 1.37 395 7130 (1983) 173 (2009) 1170 183 213 301 351 696 1380 1650 2520 5240
2020-07-12 08:30 1.39 404 7130 (1983) 173 (2009) 1170 183 213 301 351 696 1380 1650 2520 5240
2020-07-12 07:30 1.40 409 7130 (1983) 173 (2009) 1170 183 213 301 351 696 1380 1650 2520 5240
2020-07-12 06:30 1.43 423 7130 (1983) 173 (2009) 1170 183 213 301 351 696 1380 1650 2520 5240
2020-07-12 05:30 1.44 427 7130 (1983) 173 (2009) 1170 183 213 301 351 696 1380 1650 2520 5240
2020-07-12 04:30 1.41 413 7130 (1983) 173 (2009) 1170 183 213 301 351 696 1380 1650 2520 5240
2020-07-12 03:30 1.47 441 7130 (1983) 173 (2009) 1170 183 213 301 351 696 1380 1650 2520 5240
2020-07-12 02:30 1.49 451 7130 (1983) 173 (2009) 1170 183 213 301 351 696 1380 1650 2520 5240
2020-07-12 01:30 1.45 432 7130 (1983) 173 (2009) 1170 183 213 301 351 696 1380 1650 2520 5240
2020-07-12 00:30 1.52 465 7130 (1983) 173 (2009) 1170 183 213 301 351 696 1380 1650 2520 5240
2020-07-11 23:30 1.55 480 7110 (1983) 133 (1988) 1150 155 230 314 347 611 1330 1440 2670 5170
2020-07-11 22:30 1.59 500 7110 (1983) 133 (1988) 1150 155 230 314 347 611 1330 1440 2670 5170
2020-07-11 21:30 1.64 525 7110 (1983) 133 (1988) 1150 155 230 314 347 611 1330 1440 2670 5170
2020-07-11 20:30 1.68 546 7110 (1983) 133 (1988) 1150 155 230 314 347 611 1330 1440 2670 5170
2020-07-11 19:30 1.73 572 7110 (1983) 133 (1988) 1150 155 230 314 347 611 1330 1440 2670 5170
2020-07-11 18:30 1.78 598 7110 (1983) 133 (1988) 1150 155 230 314 347 611 1330 1440 2670 5170
2020-07-11 17:30 1.84 631 7110 (1983) 133 (1988) 1150 155 230 314 347 611 1330 1440 2670 5170
2020-07-11 16:30 1.90 664 7110 (1983) 133 (1988) 1150 155 230 314 347 611 1330 1440 2670 5170
2020-07-11 15:30 1.97 704 7110 (1983) 133 (1988) 1150 155 230 314 347 611 1330 1440 2670 5170
2020-07-11 14:30 2.04 745 7110 (1983) 133 (1988) 1150 155 230 314 347 611 1330 1440 2670 5170
2020-07-11 13:30 2.15 810 7110 (1983) 133 (1988) 1150 155 230 314 347 611 1330 1440 2670 5170
2020-07-11 12:30 2.25 872 7110 (1983) 133 (1988) 1150 155 230 314 347 611 1330 1440 2670 5170
2020-07-11 11:30 2.35 935 7110 (1983) 133 (1988) 1150 155 230 314 347 611 1330 1440 2670 5170
2020-07-11 10:30 2.47 1010 7110 (1983) 133 (1988) 1150 155 230 314 347 611 1330 1440 2670 5170
2020-07-11 09:30 2.60 1100 7110 (1983) 133 (1988) 1150 155 230 314 347 611 1330 1440 2670 5170
2020-07-11 08:30 2.73 1190 7110 (1983) 133 (1988) 1150 155 230 314 347 611 1330 1440 2670 5170
2020-07-11 07:30 2.88 1300 7110 (1983) 133 (1988) 1150 155 230 314 347 611 1330 1440 2670 5170
2020-07-11 06:30 3.04 1420 7110 (1983) 133 (1988) 1150 155 230 314 347 611 1330 1440 2670 5170
2020-07-11 05:30 3.21 1550 7110 (1983) 133 (1988) 1150 155 230 314 347 611 1330 1440 2670 5170
2020-07-11 04:30 3.39 1700 7110 (1983) 133 (1988) 1150 155 230 314 347 611 1330 1440 2670 5170
2020-07-11 03:30 3.60 1880 7110 (1983) 133 (1988) 1150 155 230 314 347 611 1330 1440 2670 5170
2020-07-11 02:30 3.83 2070 7110 (1983) 133 (1988) 1150 155 230 314 347 611 1330 1440 2670 5170
2020-07-11 01:30 4.06 2260 7110 (1983) 133 (1988) 1150 155 230 314 347 611 1330 1440 2670 5170
2020-07-11 00:30 4.30 2470 7110 (1983) 133 (1988) 1150 155 230 314 347 611 1330 1440 2670 5170
2020-07-10 23:30 4.53 2680 12200 (2007) 141 (1972) 1470 156 191 287 319 509 1640 1790 4780 6240
2020-07-10 22:30 4.73 2860 12200 (2007) 141 (1972) 1470 156 191 287 319 509 1640 1790 4780 6240
2020-07-10 21:30 4.92 3040 12200 (2007) 141 (1972) 1470 156 191 287 319 509 1640 1790 4780 6240
2020-07-10 20:30 4.98 3100 12200 (2007) 141 (1972) 1470 156 191 287 319 509 1640 1790 4780 6240
2020-07-10 19:30 4.79 2920 12200 (2007) 141 (1972) 1470 156 191 287 319 509 1640 1790 4780 6240
2020-07-10 18:30 4.18 2370 12200 (2007) 141 (1972) 1470 156 191 287 319 509 1640 1790 4780 6240
2020-07-10 17:30 3.09 1460 12200 (2007) 141 (1972) 1470 156 191 287 319 509 1640 1790 4780 6240
2020-07-10 16:30 2.04 745 12200 (2007) 141 (1972) 1470 156 191 287 319 509 1640 1790 4780 6240
2020-07-10 15:30 1.76 588 12200 (2007) 141 (1972) 1470 156 191 287 319 509 1640 1790 4780 6240
2020-07-10 14:30 1.83 625 12200 (2007) 141 (1972) 1470 156 191 287 319 509 1640 1790 4780 6240
2020-07-10 13:30 1.89 659 12200 (2007) 141 (1972) 1470 156 191 287 319 509 1640 1790 4780 6240
2020-07-10 12:30 1.95 692 12200 (2007) 141 (1972) 1470 156 191 287 319 509 1640 1790 4780 6240
2020-07-10 11:30 2.05 750 12200 (2007) 141 (1972) 1470 156 191 287 319 509 1640 1790 4780 6240
2020-07-10 10:30 2.14 804 12200 (2007) 141 (1972) 1470 156 191 287 319 509 1640 1790 4780 6240
2020-07-10 09:30 2.23 859 12200 (2007) 141 (1972) 1470 156 191 287 319 509 1640 1790 4780 6240
2020-07-10 08:30 2.32 916 12200 (2007) 141 (1972) 1470 156 191 287 319 509 1640 1790 4780 6240
2020-07-10 07:30 2.43 988 12200 (2007) 141 (1972) 1470 156 191 287 319 509 1640 1790 4780 6240
2020-07-10 06:30 2.55 1070 12200 (2007) 141 (1972) 1470 156 191 287 319 509 1640 1790 4780 6240
2020-07-10 05:30 2.68 1160 12200 (2007) 141 (1972) 1470 156 191 287 319 509 1640 1790 4780 6240
2020-07-10 04:30 2.82 1260 12200 (2007) 141 (1972) 1470 156 191 287 319 509 1640 1790 4780 6240
2020-07-10 03:30 2.97 1370 12200 (2007) 141 (1972) 1470 156 191 287 319 509 1640 1790 4780 6240
2020-07-10 02:30 3.12 1480 12200 (2007) 141 (1972) 1470 156 191 287 319 509 1640 1790 4780 6240
2020-07-10 01:30 3.32 1640 12200 (2007) 141 (1972) 1470 156 191 287 319 509 1640 1790 4780 6240
2020-07-10 00:30 3.51 1800 12200 (2007) 141 (1972) 1470 156 191 287 319 509 1640 1790 4780 6240
2020-07-09 23:30 3.72 1980 8780 (2007) 94 (1978) 1330 127 202 318 340 689 1260 1790 3710 7380
2020-07-09 22:30 3.94 2160 8780 (2007) 94 (1978) 1330 127 202 318 340 689 1260 1790 3710 7380
2020-07-09 21:30 4.14 2330 8780 (2007) 94 (1978) 1330 127 202 318 340 689 1260 1790 3710 7380
2020-07-09 20:30 4.23 2410 8780 (2007) 94 (1978) 1330 127 202 318 340 689 1260 1790 3710 7380
2020-07-09 19:30 3.98 2200 8780 (2007) 94 (1978) 1330 127 202 318 340 689 1260 1790 3710 7380
2020-07-09 18:30 3.14 1500 8780 (2007) 94 (1978) 1330 127 202 318 340 689 1260 1790 3710 7380
2020-07-09 17:30 2.21 847 8780 (2007) 94 (1978) 1330 127 202 318 340 689 1260 1790 3710 7380
2020-07-09 16:30 1.79 604 8780 (2007) 94 (1978) 1330 127 202 318 340 689 1260 1790 3710 7380
2020-07-09 15:30 1.78 598 8780 (2007) 94 (1978) 1330 127 202 318 340 689 1260 1790 3710 7380
2020-07-09 14:30 1.86 642 8780 (2007) 94 (1978) 1330 127 202 318 340 689 1260 1790 3710 7380
2020-07-09 13:30 1.93 681 8780 (2007) 94 (1978) 1330 127 202 318 340 689 1260 1790 3710 7380
2020-07-09 12:30 2.00 721 8780 (2007) 94 (1978) 1330 127 202 318 340 689 1260 1790 3710 7380
2020-07-09 11:30 2.09 774 8780 (2007) 94 (1978) 1330 127 202 318 340 689 1260 1790 3710 7380
2020-07-09 10:30 2.17 822 8780 (2007) 94 (1978) 1330 127 202 318 340 689 1260 1790 3710 7380
2020-07-09 09:30 2.26 878 8780 (2007) 94 (1978) 1330 127 202 318 340 689 1260 1790 3710 7380
2020-07-09 08:30 2.36 942 8780 (2007) 94 (1978) 1330 127 202 318 340 689 1260 1790 3710 7380
2020-07-09 07:30 2.47 1010 8780 (2007) 94 (1978) 1330 127 202 318 340 689 1260 1790 3710 7380
2020-07-09 06:30 2.60 1100 8780 (2007) 94 (1978) 1330 127 202 318 340 689 1260 1790 3710 7380
2020-07-09 05:30 2.73 1190 8780 (2007) 94 (1978) 1330 127 202 318 340 689 1260 1790 3710 7380
2020-07-09 04:30 2.87 1290 8780 (2007) 94 (1978) 1330 127 202 318 340 689 1260 1790 3710 7380
2020-07-09 03:30 3.02 1410 8780 (2007) 94 (1978) 1330 127 202 318 340 689 1260 1790 3710 7380
2020-07-09 02:30 3.19 1540 8780 (2007) 94 (1978) 1330 127 202 318 340 689 1260 1790 3710 7380
2020-07-09 01:30 3.38 1690 8780 (2007) 94 (1978) 1330 127 202 318 340 689 1260 1790 3710 7380
2020-07-08 23:30 3.79 2040 7830 (1999) 120 (1984) 1150 143 155 199 250 599 1190 1410 3250 5760
2020-07-08 22:30 4.01 2220 7830 (1999) 120 (1984) 1150 143 155 199 250 599 1190 1410 3250 5760
2020-07-08 21:30 4.20 2380 7830 (1999) 120 (1984) 1150 143 155 199 250 599 1190 1410 3250 5760
2020-07-08 20:30 4.26 2440 7830 (1999) 120 (1984) 1150 143 155 199 250 599 1190 1410 3250 5760
2020-07-08 19:30 3.80 2050 7830 (1999) 120 (1984) 1150 143 155 199 250 599 1190 1410 3250 5760
2020-07-08 18:30 2.71 1180 7830 (1999) 120 (1984) 1150 143 155 199 250 599 1190 1410 3250 5760
2020-07-08 17:30 2.01 727 7830 (1999) 120 (1984) 1150 143 155 199 250 599 1190 1410 3250 5760
2020-07-08 16:30 2.01 727 7830 (1999) 120 (1984) 1150 143 155 199 250 599 1190 1410 3250 5760
2020-07-08 15:30 2.09 774 7830 (1999) 120 (1984) 1150 143 155 199 250 599 1190 1410 3250 5760
2020-07-08 14:30 2.17 822 7830 (1999) 120 (1984) 1150 143 155 199 250 599 1190 1410 3250 5760
2020-07-08 13:30 2.27 884 7830 (1999) 120 (1984) 1150 143 155 199 250 599 1190 1410 3250 5760
2020-07-08 12:30 2.36 942 7830 (1999) 120 (1984) 1150 143 155 199 250 599 1190 1410 3250 5760
2020-07-08 11:30 2.48 1020 7830 (1999) 120 (1984) 1150 143 155 199 250 599 1190 1410 3250 5760
2020-07-08 10:30 2.61 1110 7830 (1999) 120 (1984) 1150 143 155 199 250 599 1190 1410 3250 5760
2020-07-08 09:30 2.73 1190 7830 (1999) 120 (1984) 1150 143 155 199 250 599 1190 1410 3250 5760
2020-07-08 08:30 2.88 1300 7830 (1999) 120 (1984) 1150 143 155 199 250 599 1190 1410 3250 5760
2020-07-08 07:30 3.03 1410 7830 (1999) 120 (1984) 1150 143 155 199 250 599 1190 1410 3250 5760
2020-07-08 06:30 3.20 1550 7830 (1999) 120 (1984) 1150 143 155 199 250 599 1190 1410 3250 5760
2020-07-08 05:30 3.39 1700 7830 (1999) 120 (1984) 1150 143 155 199 250 599 1190 1410 3250 5760
2020-07-08 04:30 3.59 1870 7830 (1999) 120 (1984) 1150 143 155 199 250 599 1190 1410 3250 5760
2020-07-08 03:30 3.81 2060 7830 (1999) 120 (1984) 1150 143 155 199 250 599 1190 1410 3250 5760
2020-07-08 02:30 4.04 2250 7830 (1999) 120 (1984) 1150 143 155 199 250 599 1190 1410 3250 5760
2020-07-08 01:30 4.27 2450 7830 (1999) 120 (1984) 1150 143 155 199 250 599 1190 1410 3250 5760
2020-07-08 00:30 4.52 2670 7830 (1999) 120 (1984) 1150 143 155 199 250 599 1190 1410 3250 5760
2020-07-07 23:30 4.74 2870 7950 (1999) 150 (1988) 1050 177 197 259 294 619 1180 1430 2200 4740
2020-07-07 22:30 4.94 3060 7950 (1999) 150 (1988) 1050 177 197 259 294 619 1180 1430 2200 4740
2020-07-07 21:30 5.09 3210 7950 (1999) 150 (1988) 1050 177 197 259 294 619 1180 1430 2200 4740
2020-07-07 20:30 5.08 3200 7950 (1999) 150 (1988) 1050 177 197 259 294 619 1180 1430 2200 4740
2020-07-07 19:30 4.74 2870 7950 (1999) 150 (1988) 1050 177 197 259 294 619 1180 1430 2200 4740
2020-07-07 18:30 4.02 2230 7950 (1999) 150 (1988) 1050 177 197 259 294 619 1180 1430 2200 4740
2020-07-07 17:30 2.95 1350 7950 (1999) 150 (1988) 1050 177 197 259 294 619 1180 1430 2200 4740
2020-07-07 16:30 2.22 853 7950 (1999) 150 (1988) 1050 177 197 259 294 619 1180 1430 2200 4740
2020-07-07 15:30 2.19 835 7950 (1999) 150 (1988) 1050 177 197 259 294 619 1180 1430 2200 4740
2020-07-07 14:30 2.28 891 7950 (1999) 150 (1988) 1050 177 197 259 294 619 1180 1430 2200 4740
2020-07-07 13:30 2.39 961 7950 (1999) 150 (1988) 1050 177 197 259 294 619 1180 1430 2200 4740
2020-07-07 12:30 2.49 1030 7950 (1999) 150 (1988) 1050 177 197 259 294 619 1180 1430 2200 4740
2020-07-07 11:30 2.61 1110 7950 (1999) 150 (1988) 1050 177 197 259 294 619 1180 1430 2200 4740
2020-07-07 10:30 2.73 1190 7950 (1999) 150 (1988) 1050 177 197 259 294 619 1180 1430 2200 4740
2020-07-07 09:30 2.87 1290 7950 (1999) 150 (1988) 1050 177 197 259 294 619 1180 1430 2200 4740
2020-07-07 08:30 3.02 1410 7950 (1999) 150 (1988) 1050 177 197 259 294 619 1180 1430 2200 4740
2020-07-07 07:30 3.18 1530 7950 (1999) 150 (1988) 1050 177 197 259 294 619 1180 1430 2200 4740
2020-07-07 06:30 3.35 1670 7950 (1999) 150 (1988) 1050 177 197 259 294 619 1180 1430 2200 4740
2020-07-07 05:30 3.55 1830 7950 (1999) 150 (1988) 1050 177 197 259 294 619 1180 1430 2200 4740
2020-07-07 04:30 3.76 2010 7950 (1999) 150 (1988) 1050 177 197 259 294 619 1180 1430 2200 4740
2020-07-07 03:30 3.99 2200 7950 (1999) 150 (1988) 1050 177 197 259 294 619 1180 1430 2200 4740
2020-07-07 02:30 4.22 2400 7950 (1999) 150 (1988) 1050 177 197 259 294 619 1180 1430 2200 4740
2020-07-07 01:30 4.47 2620 7950 (1999) 150 (1988) 1050 177 197 259 294 619 1180 1430 2200 4740
2020-07-07 00:30 4.70 2840 7950 (1999) 150 (1988) 1050 177 197 259 294 619 1180 1430 2200 4740
2020-07-06 23:30 4.92 3040 4160 (1999) 88 (1972) 857 152 170 292 332 519 1110 1280 1930 3370
2020-07-06 22:30 5.12 3240 4160 (1999) 88 (1972) 857 152 170 292 332 519 1110 1280 1930 3370
2020-07-06 21:30 5.30 3420 4160 (1999) 88 (1972) 857 152 170 292 332 519 1110 1280 1930 3370
2020-07-06 20:30 5.41 3530 4160 (1999) 88 (1972) 857 152 170 292 332 519 1110 1280 1930 3370
2020-07-06 19:30 5.33 3450 4160 (1999) 88 (1972) 857 152 170 292 332 519 1110 1280 1930 3370
2020-07-06 18:30 5.00 3120 4160 (1999) 88 (1972) 857 152 170 292 332 519 1110 1280 1930 3370
2020-07-06 17:30 4.46 2620 4160 (1999) 88 (1972) 857 152 170 292 332 519 1110 1280 1930 3370
2020-07-06 16:30 3.55 1830 4160 (1999) 88 (1972) 857 152 170 292 332 519 1110 1280 1930 3370
2020-07-06 15:30 2.64 1130 4160 (1999) 88 (1972) 857 152 170 292 332 519 1110 1280 1930 3370
2020-07-06 14:30 2.06 756 4160 (1999) 88 (1972) 857 152 170 292 332 519 1110 1280 1930 3370
2020-07-06 13:30 1.79 604 4160 (1999) 88 (1972) 857 152 170 292 332 519 1110 1280 1930 3370
2020-07-06 12:30 1.83 625 4160 (1999) 88 (1972) 857 152 170 292 332 519 1110 1280 1930 3370
2020-07-06 11:30 1.90 664 4160 (1999) 88 (1972) 857 152 170 292 332 519 1110 1280 1930 3370
2020-07-06 10:30 1.90 664 4160 (1999) 88 (1972) 857 152 170 292 332 519 1110 1280 1930 3370
2020-07-06 09:30 2.00 721 4160 (1999) 88 (1972) 857 152 170 292 332 519 1110 1280 1930 3370
2020-07-06 08:30 2.07 762 4160 (1999) 88 (1972) 857 152 170 292 332 519 1110 1280 1930 3370
2020-07-06 07:30 2.16 816 4160 (1999) 88 (1972) 857 152 170 292 332 519 1110 1280 1930 3370
2020-07-06 06:30 2.25 872 4160 (1999) 88 (1972) 857 152 170 292 332 519 1110 1280 1930 3370
2020-07-06 05:30 2.34 929 4160 (1999) 88 (1972) 857 152 170 292 332 519 1110 1280 1930 3370
2020-07-06 04:30 2.45 1000 4160 (1999) 88 (1972) 857 152 170 292 332 519 1110 1280 1930 3370
2020-07-06 03:30 2.56 1070 4160 (1999) 88 (1972) 857 152 170 292 332 519 1110 1280 1930 3370
2020-07-06 02:30 2.70 1170 4160 (1999) 88 (1972) 857 152 170 292 332 519 1110 1280 1930 3370
2020-07-06 01:30 2.84 1270 4160 (1999) 88 (1972) 857 152 170 292 332 519 1110 1280 1930 3370
2020-07-06 00:30 2.98 1380 4160 (1999) 88 (1972) 857 152 170 292 332 519 1110 1280 1930 3370

A total of 186 rows are displayed for years 1970 through 2019.